sensor_id;sensor_type;location;lat;lon;timestamp;P1;durP1;ratioP1;P2;durP2;ratioP2
10910;SDS011;5508;49.150;11.030;2022-08-19T00:01:25;13.37;;;12.07;;
10910;SDS011;5508;49.150;11.030;2022-08-19T00:04:29;13.43;;;12.20;;
10910;SDS011;5508;49.150;11.030;2022-08-19T00:07:32;15.43;;;13.47;;
10910;SDS011;5508;49.150;11.030;2022-08-19T00:10:33;15.13;;;13.73;;
10910;SDS011;5508;49.150;11.030;2022-08-19T00:13:34;14.83;;;13.50;;
10910;SDS011;5508;49.150;11.030;2022-08-19T00:16:35;16.80;;;15.27;;
10910;SDS011;5508;49.150;11.030;2022-08-19T00:19:38;16.20;;;14.80;;
10910;SDS011;5508;49.150;11.030;2022-08-19T00:22:40;16.00;;;14.53;;
10910;SDS011;5508;49.150;11.030;2022-08-19T00:25:41;18.20;;;16.40;;
10910;SDS011;5508;49.150;11.030;2022-08-19T00:28:41;18.70;;;16.77;;
10910;SDS011;5508;49.150;11.030;2022-08-19T00:31:43;18.50;;;16.60;;
10910;SDS011;5508;49.150;11.030;2022-08-19T00:34:44;17.63;;;16.10;;
10910;SDS011;5508;49.150;11.030;2022-08-19T00:37:44;17.10;;;15.53;;
10910;SDS011;5508;49.150;11.030;2022-08-19T00:40:47;19.13;;;16.60;;
10910;SDS011;5508;49.150;11.030;2022-08-19T00:44:01;18.13;;;16.43;;
10910;SDS011;5508;49.150;11.030;2022-08-19T00:47:04;18.30;;;15.57;;
10910;SDS011;5508;49.150;11.030;2022-08-19T00:50:06;18.50;;;16.73;;
10910;SDS011;5508;49.150;11.030;2022-08-19T00:53:10;18.47;;;16.70;;
10910;SDS011;5508;49.150;11.030;2022-08-19T00:56:14;20.13;;;18.17;;
10910;SDS011;5508;49.150;11.030;2022-08-19T00:59:16;20.60;;;18.60;;
10910;SDS011;5508;49.150;11.030;2022-08-19T01:02:19;21.00;;;19.10;;
10910;SDS011;5508;49.150;11.030;2022-08-19T01:05:21;21.33;;;19.27;;
10910;SDS011;5508;49.150;11.030;2022-08-19T01:08:29;19.77;;;17.93;;
10910;SDS011;5508;49.150;11.030;2022-08-19T01:11:30;21.37;;;19.23;;
10910;SDS011;5508;49.150;11.030;2022-08-19T01:14:35;20.77;;;18.97;;
10910;SDS011;5508;49.150;11.030;2022-08-19T01:17:39;19.87;;;18.17;;
10910;SDS011;5508;49.150;11.030;2022-08-19T01:20:43;19.87;;;18.07;;
10910;SDS011;5508;49.150;11.030;2022-08-19T01:23:45;17.30;;;15.57;;
10910;SDS011;5508;49.150;11.030;2022-08-19T01:26:46;18.07;;;16.37;;
10910;SDS011;5508;49.150;11.030;2022-08-19T01:29:47;17.57;;;15.97;;
10910;SDS011;5508;49.150;11.030;2022-08-19T01:32:48;18.03;;;16.17;;
10910;SDS011;5508;49.150;11.030;2022-08-19T01:35:49;17.53;;;14.97;;
10910;SDS011;5508;49.150;11.030;2022-08-19T01:38:51;16.63;;;15.03;;
10910;SDS011;5508;49.150;11.030;2022-08-19T01:41:52;15.43;;;14.03;;
10910;SDS011;5508;49.150;11.030;2022-08-19T01:44:54;15.50;;;14.17;;
10910;SDS011;5508;49.150;11.030;2022-08-19T01:47:54;16.67;;;15.17;;
10910;SDS011;5508;49.150;11.030;2022-08-19T01:50:55;16.60;;;14.90;;
10910;SDS011;5508;49.150;11.030;2022-08-19T01:53:56;15.97;;;14.40;;
10910;SDS011;5508;49.150;11.030;2022-08-19T01:57:00;16.53;;;15.03;;
10910;SDS011;5508;49.150;11.030;2022-08-19T02:00:05;17.13;;;15.27;;
10910;SDS011;5508;49.150;11.030;2022-08-19T02:03:09;16.30;;;14.73;;
10910;SDS011;5508;49.150;11.030;2022-08-19T02:06:11;16.63;;;14.90;;
10910;SDS011;5508;49.150;11.030;2022-08-19T02:09:12;16.47;;;14.87;;
10910;SDS011;5508;49.150;11.030;2022-08-19T02:12:12;15.50;;;14.10;;
10910;SDS011;5508;49.150;11.030;2022-08-19T02:15:13;17.13;;;15.50;;
10910;SDS011;5508;49.150;11.030;2022-08-19T02:18:13;17.27;;;15.47;;
10910;SDS011;5508;49.150;11.030;2022-08-19T02:21:15;17.97;;;16.37;;
10910;SDS011;5508;49.150;11.030;2022-08-19T02:24:16;17.27;;;15.63;;
10910;SDS011;5508;49.150;11.030;2022-08-19T02:27:17;18.10;;;16.43;;
10910;SDS011;5508;49.150;11.030;2022-08-19T02:30:18;18.50;;;16.77;;
10910;SDS011;5508;49.150;11.030;2022-08-19T02:33:18;19.10;;;17.10;;
10910;SDS011;5508;49.150;11.030;2022-08-19T02:36:19;18.40;;;16.67;;
10910;SDS011;5508;49.150;11.030;2022-08-19T02:39:20;18.70;;;16.53;;
10910;SDS011;5508;49.150;11.030;2022-08-19T02:42:20;20.13;;;18.23;;
10910;SDS011;5508;49.150;11.030;2022-08-19T02:45:21;19.57;;;17.53;;
10910;SDS011;5508;49.150;11.030;2022-08-19T02:48:23;21.43;;;18.70;;
10910;SDS011;5508;49.150;11.030;2022-08-19T02:51:29;20.60;;;18.73;;
10910;SDS011;5508;49.150;11.030;2022-08-19T02:54:32;20.33;;;18.23;;
10910;SDS011;5508;49.150;11.030;2022-08-19T02:57:32;20.67;;;18.13;;
10910;SDS011;5508;49.150;11.030;2022-08-19T03:00:34;21.90;;;19.80;;
10910;SDS011;5508;49.150;11.030;2022-08-19T03:03:34;19.80;;;17.97;;
10910;SDS011;5508;49.150;11.030;2022-08-19T03:06:38;20.97;;;19.07;;
10910;SDS011;5508;49.150;11.030;2022-08-19T03:09:40;19.80;;;17.80;;
10910;SDS011;5508;49.150;11.030;2022-08-19T03:12:42;21.10;;;19.10;;
10910;SDS011;5508;49.150;11.030;2022-08-19T03:15:44;19.63;;;17.60;;
10910;SDS011;5508;49.150;11.030;2022-08-19T03:18:46;20.70;;;18.63;;
10910;SDS011;5508;49.150;11.030;2022-08-19T03:21:47;20.93;;;18.97;;
10910;SDS011;5508;49.150;11.030;2022-08-19T03:24:48;20.53;;;18.63;;
10910;SDS011;5508;49.150;11.030;2022-08-19T03:27:48;21.20;;;19.10;;
10910;SDS011;5508;49.150;11.030;2022-08-19T03:30:59;22.17;;;19.90;;
10910;SDS011;5508;49.150;11.030;2022-08-19T03:34:06;21.83;;;19.73;;
10910;SDS011;5508;49.150;11.030;2022-08-19T03:37:08;21.93;;;19.77;;
10910;SDS011;5508;49.150;11.030;2022-08-19T03:40:12;22.63;;;20.53;;
10910;SDS011;5508;49.150;11.030;2022-08-19T03:43:12;23.77;;;21.43;;
10910;SDS011;5508;49.150;11.030;2022-08-19T03:46:14;22.53;;;20.43;;
10910;SDS011;5508;49.150;11.030;2022-08-19T03:49:17;23.17;;;20.97;;
10910;SDS011;5508;49.150;11.030;2022-08-19T03:52:18;23.23;;;20.83;;
10910;SDS011;5508;49.150;11.030;2022-08-19T03:55:19;23.43;;;20.93;;
10910;SDS011;5508;49.150;11.030;2022-08-19T03:58:20;24.20;;;21.63;;
10910;SDS011;5508;49.150;11.030;2022-08-19T04:01:21;21.80;;;19.70;;
10910;SDS011;5508;49.150;11.030;2022-08-19T04:04:24;22.83;;;20.43;;
10910;SDS011;5508;49.150;11.030;2022-08-19T04:07:25;24.40;;;22.00;;
10910;SDS011;5508;49.150;11.030;2022-08-19T04:10:26;24.73;;;22.33;;
10910;SDS011;5508;49.150;11.030;2022-08-19T04:13:28;23.83;;;21.43;;
10910;SDS011;5508;49.150;11.030;2022-08-19T04:16:28;24.47;;;22.27;;
10910;SDS011;5508;49.150;11.030;2022-08-19T04:19:29;25.17;;;22.87;;
10910;SDS011;5508;49.150;11.030;2022-08-19T04:22:31;23.33;;;21.17;;
10910;SDS011;5508;49.150;11.030;2022-08-19T04:25:41;22.60;;;20.30;;
10910;SDS011;5508;49.150;11.030;2022-08-19T04:28:43;23.67;;;21.33;;
10910;SDS011;5508;49.150;11.030;2022-08-19T04:31:44;22.47;;;20.37;;
10910;SDS011;5508;49.150;11.030;2022-08-19T04:34:45;21.60;;;19.67;;
10910;SDS011;5508;49.150;11.030;2022-08-19T04:37:46;24.17;;;21.93;;
10910;SDS011;5508;49.150;11.030;2022-08-19T04:40:47;22.73;;;20.63;;
10910;SDS011;5508;49.150;11.030;2022-08-19T04:44:07;22.57;;;20.33;;
10910;SDS011;5508;49.150;11.030;2022-08-19T04:47:09;22.97;;;20.70;;
10910;SDS011;5508;49.150;11.030;2022-08-19T04:50:09;24.03;;;21.77;;
10910;SDS011;5508;49.150;11.030;2022-08-19T04:53:11;23.63;;;21.17;;
10910;SDS011;5508;49.150;11.030;2022-08-19T04:56:13;24.73;;;22.30;;
10910;SDS011;5508;49.150;11.030;2022-08-19T04:59:15;22.87;;;20.57;;
10910;SDS011;5508;49.150;11.030;2022-08-19T05:02:17;23.60;;;21.30;;
10910;SDS011;5508;49.150;11.030;2022-08-19T05:05:17;22.87;;;20.47;;
10910;SDS011;5508;49.150;11.030;2022-08-19T05:08:19;24.23;;;21.83;;
10910;SDS011;5508;49.150;11.030;2022-08-19T05:11:22;24.00;;;21.53;;
10910;SDS011;5508;49.150;11.030;2022-08-19T05:14:29;23.37;;;20.90;;
10910;SDS011;5508;49.150;11.030;2022-08-19T05:17:29;24.03;;;21.57;;
10910;SDS011;5508;49.150;11.030;2022-08-19T05:20:30;23.33;;;21.13;;
10910;SDS011;5508;49.150;11.030;2022-08-19T05:23:49;22.90;;;20.80;;
10910;SDS011;5508;49.150;11.030;2022-08-19T05:26:50;22.40;;;20.10;;
10910;SDS011;5508;49.150;11.030;2022-08-19T05:29:52;23.47;;;21.07;;
10910;SDS011;5508;49.150;11.030;2022-08-19T05:32:52;23.60;;;21.13;;
10910;SDS011;5508;49.150;11.030;2022-08-19T05:35:53;23.83;;;21.43;;
10910;SDS011;5508;49.150;11.030;2022-08-19T05:38:54;22.83;;;20.60;;
10910;SDS011;5508;49.150;11.030;2022-08-19T05:41:57;23.13;;;20.83;;
10910;SDS011;5508;49.150;11.030;2022-08-19T05:44:59;24.10;;;21.70;;
10910;SDS011;5508;49.150;11.030;2022-08-19T05:48:00;23.20;;;20.90;;
10910;SDS011;5508;49.150;11.030;2022-08-19T05:51:04;24.60;;;21.93;;
10910;SDS011;5508;49.150;11.030;2022-08-19T05:54:06;23.77;;;21.27;;
10910;SDS011;5508;49.150;11.030;2022-08-19T05:57:09;22.37;;;20.17;;
10910;SDS011;5508;49.150;11.030;2022-08-19T06:00:10;22.27;;;20.07;;
10910;SDS011;5508;49.150;11.030;2022-08-19T06:03:11;22.67;;;20.17;;
10910;SDS011;5508;49.150;11.030;2022-08-19T06:06:12;24.00;;;21.60;;
10910;SDS011;5508;49.150;11.030;2022-08-19T06:09:14;23.57;;;21.30;;
10910;SDS011;5508;49.150;11.030;2022-08-19T06:12:15;21.73;;;19.53;;
10910;SDS011;5508;49.150;11.030;2022-08-19T06:15:15;24.17;;;21.67;;
10910;SDS011;5508;49.150;11.030;2022-08-19T06:18:16;23.03;;;20.80;;
10910;SDS011;5508;49.150;11.030;2022-08-19T06:21:18;21.60;;;19.60;;
10910;SDS011;5508;49.150;11.030;2022-08-19T06:24:23;22.67;;;20.27;;
10910;SDS011;5508;49.150;11.030;2022-08-19T06:27:25;23.03;;;20.63;;
10910;SDS011;5508;49.150;11.030;2022-08-19T06:30:25;22.97;;;20.77;;
10910;SDS011;5508;49.150;11.030;2022-08-19T06:33:27;21.07;;;18.97;;
10910;SDS011;5508;49.150;11.030;2022-08-19T06:36:28;22.10;;;19.90;;
10910;SDS011;5508;49.150;11.030;2022-08-19T06:39:35;22.47;;;20.23;;
10910;SDS011;5508;49.150;11.030;2022-08-19T06:42:38;21.03;;;18.93;;
10910;SDS011;5508;49.150;11.030;2022-08-19T06:45:39;20.93;;;18.80;;
10910;SDS011;5508;49.150;11.030;2022-08-19T06:48:39;20.87;;;18.83;;
10910;SDS011;5508;49.150;11.030;2022-08-19T06:51:41;20.67;;;18.47;;
10910;SDS011;5508;49.150;11.030;2022-08-19T06:54:43;20.20;;;18.13;;
10910;SDS011;5508;49.150;11.030;2022-08-19T06:57:44;20.83;;;18.83;;
10910;SDS011;5508;49.150;11.030;2022-08-19T07:00:46;20.47;;;18.57;;
10910;SDS011;5508;49.150;11.030;2022-08-19T07:03:46;20.97;;;18.73;;
10910;SDS011;5508;49.150;11.030;2022-08-19T07:06:47;21.00;;;19.00;;
10910;SDS011;5508;49.150;11.030;2022-08-19T07:09:50;19.70;;;17.70;;
10910;SDS011;5508;49.150;11.030;2022-08-19T07:12:53;20.67;;;18.60;;
10910;SDS011;5508;49.150;11.030;2022-08-19T07:15:53;21.60;;;19.40;;
10910;SDS011;5508;49.150;11.030;2022-08-19T07:18:54;23.10;;;20.83;;
10910;SDS011;5508;49.150;11.030;2022-08-19T07:21:56;21.43;;;19.33;;
10910;SDS011;5508;49.150;11.030;2022-08-19T07:24:59;22.30;;;20.13;;
10910;SDS011;5508;49.150;11.030;2022-08-19T07:28:03;20.67;;;18.70;;
10910;SDS011;5508;49.150;11.030;2022-08-19T07:31:04;21.40;;;19.20;;
10910;SDS011;5508;49.150;11.030;2022-08-19T07:34:07;22.33;;;20.13;;
10910;SDS011;5508;49.150;11.030;2022-08-19T07:37:11;21.20;;;19.00;;
10910;SDS011;5508;49.150;11.030;2022-08-19T07:40:12;24.60;;;22.07;;
10910;SDS011;5508;49.150;11.030;2022-08-19T07:43:13;23.47;;;21.17;;
10910;SDS011;5508;49.150;11.030;2022-08-19T07:46:15;22.97;;;20.77;;
10910;SDS011;5508;49.150;11.030;2022-08-19T07:49:16;27.20;;;24.50;;
10910;SDS011;5508;49.150;11.030;2022-08-19T07:52:19;22.70;;;20.40;;
10910;SDS011;5508;49.150;11.030;2022-08-19T07:55:21;23.23;;;20.77;;
10910;SDS011;5508;49.150;11.030;2022-08-19T07:58:23;23.73;;;21.30;;
10910;SDS011;5508;49.150;11.030;2022-08-19T08:01:25;25.00;;;22.37;;
10910;SDS011;5508;49.150;11.030;2022-08-19T08:04:28;22.17;;;20.00;;
10910;SDS011;5508;49.150;11.030;2022-08-19T08:07:48;23.47;;;21.20;;
10910;SDS011;5508;49.150;11.030;2022-08-19T08:11:07;24.07;;;21.57;;
10910;SDS011;5508;49.150;11.030;2022-08-19T08:14:08;24.60;;;22.03;;
10910;SDS011;5508;49.150;11.030;2022-08-19T08:17:09;23.40;;;21.10;;
10910;SDS011;5508;49.150;11.030;2022-08-19T08:20:11;23.77;;;21.37;;
10910;SDS011;5508;49.150;11.030;2022-08-19T08:23:12;22.13;;;19.90;;
10910;SDS011;5508;49.150;11.030;2022-08-19T08:26:22;23.50;;;21.10;;
10910;SDS011;5508;49.150;11.030;2022-08-19T08:29:23;22.40;;;20.03;;
10910;SDS011;5508;49.150;11.030;2022-08-19T08:32:27;21.47;;;19.40;;
10910;SDS011;5508;49.150;11.030;2022-08-19T08:35:28;21.07;;;19.00;;
10910;SDS011;5508;49.150;11.030;2022-08-19T08:38:30;20.93;;;18.83;;
10910;SDS011;5508;49.150;11.030;2022-08-19T08:45:05;21.13;;;19.03;;
10910;SDS011;5508;49.150;11.030;2022-08-19T08:48:17;19.70;;;17.80;;
10910;SDS011;5508;49.150;11.030;2022-08-19T08:52:04;18.97;;;17.00;;
10910;SDS011;5508;49.150;11.030;2022-08-19T08:54:48;20.43;;;18.17;;
10910;SDS011;5508;49.150;11.030;2022-08-19T08:57:53;18.77;;;16.97;;
10910;SDS011;5508;49.150;11.030;2022-08-19T09:01:03;18.57;;;16.73;;
10910;SDS011;5508;49.150;11.030;2022-08-19T09:04:04;18.67;;;16.90;;
10910;SDS011;5508;49.150;11.030;2022-08-19T09:10:42;18.65;;;16.75;;
10910;SDS011;5508;49.150;11.030;2022-08-19T09:17:28;17.30;;;15.63;;
10910;SDS011;5508;49.150;11.030;2022-08-19T09:20:30;17.43;;;14.63;;
10910;SDS011;5508;49.150;11.030;2022-08-19T09:23:31;15.83;;;14.20;;
10910;SDS011;5508;49.150;11.030;2022-08-19T09:26:32;16.20;;;14.63;;
10910;SDS011;5508;49.150;11.030;2022-08-19T09:29:32;14.70;;;13.40;;
10910;SDS011;5508;49.150;11.030;2022-08-19T09:32:33;15.37;;;13.77;;
10910;SDS011;5508;49.150;11.030;2022-08-19T09:35:33;15.40;;;13.80;;
10910;SDS011;5508;49.150;11.030;2022-08-19T09:38:35;17.80;;;14.87;;
10910;SDS011;5508;49.150;11.030;2022-08-19T09:41:40;15.23;;;13.83;;
10910;SDS011;5508;49.150;11.030;2022-08-19T09:44:41;15.40;;;13.90;;
10910;SDS011;5508;49.150;11.030;2022-08-19T09:47:42;14.37;;;13.07;;
10910;SDS011;5508;49.150;11.030;2022-08-19T09:50:43;14.03;;;12.73;;
10910;SDS011;5508;49.150;11.030;2022-08-19T09:53:44;13.50;;;12.30;;
10910;SDS011;5508;49.150;11.030;2022-08-19T09:56:45;21.50;;;15.23;;
10910;SDS011;5508;49.150;11.030;2022-08-19T09:59:46;17.90;;;16.10;;
10910;SDS011;5508;49.150;11.030;2022-08-19T10:02:47;21.90;;;19.07;;
10910;SDS011;5508;49.150;11.030;2022-08-19T10:05:48;20.60;;;18.60;;
10910;SDS011;5508;49.150;11.030;2022-08-19T10:08:49;19.03;;;17.23;;
10910;SDS011;5508;49.150;11.030;2022-08-19T10:11:50;20.30;;;18.30;;
10910;SDS011;5508;49.150;11.030;2022-08-19T10:14:51;19.90;;;17.97;;
10910;SDS011;5508;49.150;11.030;2022-08-19T10:17:54;20.00;;;17.87;;
10910;SDS011;5508;49.150;11.030;2022-08-19T10:21:02;19.40;;;17.27;;
10910;SDS011;5508;49.150;11.030;2022-08-19T10:24:11;19.63;;;17.67;;
10910;SDS011;5508;49.150;11.030;2022-08-19T10:27:12;18.67;;;16.70;;
10910;SDS011;5508;49.150;11.030;2022-08-19T10:30:14;19.30;;;17.40;;
10910;SDS011;5508;49.150;11.030;2022-08-19T10:33:14;18.47;;;16.60;;
10910;SDS011;5508;49.150;11.030;2022-08-19T10:36:16;18.87;;;16.97;;
10910;SDS011;5508;49.150;11.030;2022-08-19T10:39:18;18.67;;;16.67;;
10910;SDS011;5508;49.150;11.030;2022-08-19T10:42:19;20.07;;;17.97;;
10910;SDS011;5508;49.150;11.030;2022-08-19T10:45:21;19.67;;;17.87;;
10910;SDS011;5508;49.150;11.030;2022-08-19T10:48:25;20.10;;;18.17;;
10910;SDS011;5508;49.150;11.030;2022-08-19T10:51:26;19.67;;;17.77;;
10910;SDS011;5508;49.150;11.030;2022-08-19T10:54:45;19.33;;;17.43;;
10910;SDS011;5508;49.150;11.030;2022-08-19T10:58:09;18.63;;;16.83;;
10910;SDS011;5508;49.150;11.030;2022-08-19T11:01:14;19.37;;;17.37;;
10910;SDS011;5508;49.150;11.030;2022-08-19T11:04:15;18.27;;;16.47;;
10910;SDS011;5508;49.150;11.030;2022-08-19T11:07:17;19.80;;;17.83;;
10910;SDS011;5508;49.150;11.030;2022-08-19T11:10:17;19.20;;;17.20;;
10910;SDS011;5508;49.150;11.030;2022-08-19T11:13:19;21.37;;;18.97;;
10910;SDS011;5508;49.150;11.030;2022-08-19T11:16:20;23.67;;;20.33;;
10910;SDS011;5508;49.150;11.030;2022-08-19T11:19:22;21.00;;;18.90;;
10910;SDS011;5508;49.150;11.030;2022-08-19T11:22:23;21.83;;;19.63;;
10910;SDS011;5508;49.150;11.030;2022-08-19T11:25:24;23.77;;;21.23;;
10910;SDS011;5508;49.150;11.030;2022-08-19T11:28:24;22.90;;;20.40;;
10910;SDS011;5508;49.150;11.030;2022-08-19T11:31:27;21.80;;;19.50;;
10910;SDS011;5508;49.150;11.030;2022-08-19T11:34:30;22.57;;;20.37;;
10910;SDS011;5508;49.150;11.030;2022-08-19T11:37:31;22.73;;;20.20;;
10910;SDS011;5508;49.150;11.030;2022-08-19T11:40:37;24.73;;;21.73;;
10910;SDS011;5508;49.150;11.030;2022-08-19T11:43:38;24.67;;;22.07;;
10910;SDS011;5508;49.150;11.030;2022-08-19T11:46:40;27.57;;;23.10;;
10910;SDS011;5508;49.150;11.030;2022-08-19T11:49:46;30.00;;;24.60;;
10910;SDS011;5508;49.150;11.030;2022-08-19T11:52:47;30.00;;;26.80;;
10910;SDS011;5508;49.150;11.030;2022-08-19T11:55:49;34.60;;;29.33;;
10910;SDS011;5508;49.150;11.030;2022-08-19T11:58:55;34.73;;;30.93;;
10910;SDS011;5508;49.150;11.030;2022-08-19T12:01:59;41.00;;;33.47;;
10910;SDS011;5508;49.150;11.030;2022-08-19T12:05:00;37.00;;;32.00;;
10910;SDS011;5508;49.150;11.030;2022-08-19T12:08:03;41.63;;;32.83;;
10910;SDS011;5508;49.150;11.030;2022-08-19T12:11:04;42.73;;;34.13;;
10910;SDS011;5508;49.150;11.030;2022-08-19T12:14:09;43.50;;;34.03;;
10910;SDS011;5508;49.150;11.030;2022-08-19T12:17:13;45.57;;;35.70;;
10910;SDS011;5508;49.150;11.030;2022-08-19T12:20:13;39.00;;;33.60;;
10910;SDS011;5508;49.150;11.030;2022-08-19T12:23:15;45.87;;;35.73;;
10910;SDS011;5508;49.150;11.030;2022-08-19T12:26:16;47.07;;;37.30;;
10910;SDS011;5508;49.150;11.030;2022-08-19T12:29:17;45.23;;;36.93;;
10910;SDS011;5508;49.150;11.030;2022-08-19T12:32:18;46.37;;;38.03;;
10910;SDS011;5508;49.150;11.030;2022-08-19T12:35:18;43.70;;;36.00;;
10910;SDS011;5508;49.150;11.030;2022-08-19T12:38:22;47.30;;;37.00;;
10910;SDS011;5508;49.150;11.030;2022-08-19T12:41:24;41.60;;;34.13;;
10910;SDS011;5508;49.150;11.030;2022-08-19T12:44:25;37.73;;;33.63;;
10910;SDS011;5508;49.150;11.030;2022-08-19T12:47:25;35.93;;;31.47;;
10910;SDS011;5508;49.150;11.030;2022-08-19T12:50:26;36.63;;;31.33;;
10910;SDS011;5508;49.150;11.030;2022-08-19T12:53:28;32.83;;;29.33;;
10910;SDS011;5508;49.150;11.030;2022-08-19T12:56:28;35.23;;;31.23;;
10910;SDS011;5508;49.150;11.030;2022-08-19T12:59:29;35.40;;;31.53;;
10910;SDS011;5508;49.150;11.030;2022-08-19T13:02:30;37.13;;;31.67;;
10910;SDS011;5508;49.150;11.030;2022-08-19T13:05:32;34.33;;;29.83;;
10910;SDS011;5508;49.150;11.030;2022-08-19T13:08:34;31.77;;;28.37;;
10910;SDS011;5508;49.150;11.030;2022-08-19T13:11:35;33.87;;;29.93;;
10910;SDS011;5508;49.150;11.030;2022-08-19T13:14:36;33.97;;;29.90;;
10910;SDS011;5508;49.150;11.030;2022-08-19T13:17:38;34.73;;;30.70;;
10910;SDS011;5508;49.150;11.030;2022-08-19T13:20:39;33.73;;;29.93;;
10910;SDS011;5508;49.150;11.030;2022-08-19T13:23:40;37.43;;;29.67;;
10910;SDS011;5508;49.150;11.030;2022-08-19T13:26:41;36.50;;;29.93;;
10910;SDS011;5508;49.150;11.030;2022-08-19T13:29:42;36.83;;;30.33;;
10910;SDS011;5508;49.150;11.030;2022-08-19T13:33:01;33.57;;;28.80;;
10910;SDS011;5508;49.150;11.030;2022-08-19T13:36:12;32.37;;;28.70;;
10910;SDS011;5508;49.150;11.030;2022-08-19T13:39:12;30.60;;;27.10;;
10910;SDS011;5508;49.150;11.030;2022-08-19T13:42:13;31.47;;;28.10;;
10910;SDS011;5508;49.150;11.030;2022-08-19T13:45:19;31.97;;;28.57;;
10910;SDS011;5508;49.150;11.030;2022-08-19T13:48:22;36.10;;;30.30;;
10910;SDS011;5508;49.150;11.030;2022-08-19T13:51:26;33.97;;;30.13;;
10910;SDS011;5508;49.150;11.030;2022-08-19T13:54:26;35.83;;;30.33;;
10910;SDS011;5508;49.150;11.030;2022-08-19T13:57:27;31.90;;;28.53;;
10910;SDS011;5508;49.150;11.030;2022-08-19T14:00:28;35.87;;;30.73;;
10910;SDS011;5508;49.150;11.030;2022-08-19T14:03:32;31.23;;;27.90;;
10910;SDS011;5508;49.150;11.030;2022-08-19T14:06:33;32.53;;;29.13;;
10910;SDS011;5508;49.150;11.030;2022-08-19T14:09:34;31.67;;;28.33;;
10910;SDS011;5508;49.150;11.030;2022-08-19T14:12:35;31.70;;;28.13;;
10910;SDS011;5508;49.150;11.030;2022-08-19T14:15:36;33.20;;;29.60;;
10910;SDS011;5508;49.150;11.030;2022-08-19T14:18:37;31.93;;;28.13;;
10910;SDS011;5508;49.150;11.030;2022-08-19T14:21:39;29.87;;;26.77;;
10910;SDS011;5508;49.150;11.030;2022-08-19T14:24:40;27.10;;;24.20;;
10910;SDS011;5508;49.150;11.030;2022-08-19T14:27:41;27.67;;;24.80;;
10910;SDS011;5508;49.150;11.030;2022-08-19T14:30:43;26.77;;;24.03;;
10910;SDS011;5508;49.150;11.030;2022-08-19T14:33:47;28.23;;;24.67;;
10910;SDS011;5508;49.150;11.030;2022-08-19T14:36:48;25.20;;;22.47;;
10910;SDS011;5508;49.150;11.030;2022-08-19T14:39:49;26.57;;;23.83;;
10910;SDS011;5508;49.150;11.030;2022-08-19T14:42:49;23.37;;;21.17;;
10910;SDS011;5508;49.150;11.030;2022-08-19T14:45:50;24.57;;;22.07;;
10910;SDS011;5508;49.150;11.030;2022-08-19T14:48:51;23.37;;;21.03;;
10910;SDS011;5508;49.150;11.030;2022-08-19T14:51:52;23.43;;;19.43;;
10910;SDS011;5508;49.150;11.030;2022-08-19T14:54:53;19.80;;;17.90;;
10910;SDS011;5508;49.150;11.030;2022-08-19T14:57:53;20.73;;;18.53;;
10910;SDS011;5508;49.150;11.030;2022-08-19T15:00:54;21.07;;;19.00;;
10910;SDS011;5508;49.150;11.030;2022-08-19T15:03:55;19.33;;;17.53;;
10910;SDS011;5508;49.150;11.030;2022-08-19T15:06:55;19.33;;;17.30;;
10910;SDS011;5508;49.150;11.030;2022-08-19T15:09:56;18.80;;;16.87;;
10910;SDS011;5508;49.150;11.030;2022-08-19T15:12:57;20.63;;;18.57;;
10910;SDS011;5508;49.150;11.030;2022-08-19T15:15:59;20.90;;;18.90;;
10910;SDS011;5508;49.150;11.030;2022-08-19T15:18:59;20.97;;;18.90;;
10910;SDS011;5508;49.150;11.030;2022-08-19T15:22:00;18.90;;;17.13;;
10910;SDS011;5508;49.150;11.030;2022-08-19T15:25:02;18.70;;;16.90;;
10910;SDS011;5508;49.150;11.030;2022-08-19T15:28:03;17.33;;;15.83;;
10910;SDS011;5508;49.150;11.030;2022-08-19T15:31:04;16.40;;;14.83;;
10910;SDS011;5508;49.150;11.030;2022-08-19T15:34:05;16.37;;;14.80;;
10910;SDS011;5508;49.150;11.030;2022-08-19T15:37:06;16.53;;;15.10;;
10910;SDS011;5508;49.150;11.030;2022-08-19T15:40:07;16.20;;;14.60;;
10910;SDS011;5508;49.150;11.030;2022-08-19T15:43:08;17.07;;;15.37;;
10910;SDS011;5508;49.150;11.030;2022-08-19T15:46:09;17.00;;;15.20;;
10910;SDS011;5508;49.150;11.030;2022-08-19T15:49:10;17.50;;;15.67;;
10910;SDS011;5508;49.150;11.030;2022-08-19T15:52:12;19.23;;;15.70;;
10910;SDS011;5508;49.150;11.030;2022-08-19T15:55:13;17.83;;;16.13;;
10910;SDS011;5508;49.150;11.030;2022-08-19T15:58:14;23.00;;;19.10;;
10910;SDS011;5508;49.150;11.030;2022-08-19T16:01:33;21.97;;;18.60;;
10910;SDS011;5508;49.150;11.030;2022-08-19T16:04:52;20.03;;;17.93;;
10910;SDS011;5508;49.150;11.030;2022-08-19T16:08:12;21.03;;;18.37;;
10910;SDS011;5508;49.150;11.030;2022-08-19T16:11:12;20.13;;;17.10;;
10910;SDS011;5508;49.150;11.030;2022-08-19T16:14:16;20.27;;;18.03;;
10910;SDS011;5508;49.150;11.030;2022-08-19T16:17:17;19.93;;;17.90;;
10910;SDS011;5508;49.150;11.030;2022-08-19T16:20:18;20.07;;;17.47;;
10910;SDS011;5508;49.150;11.030;2022-08-19T16:23:21;21.27;;;18.47;;
10910;SDS011;5508;49.150;11.030;2022-08-19T16:26:21;21.53;;;18.83;;
10910;SDS011;5508;49.150;11.030;2022-08-19T16:29:23;22.17;;;18.83;;
10910;SDS011;5508;49.150;11.030;2022-08-19T16:32:24;22.40;;;18.97;;
10910;SDS011;5508;49.150;11.030;2022-08-19T16:35:25;24.93;;;18.87;;
10910;SDS011;5508;49.150;11.030;2022-08-19T16:38:25;22.00;;;19.77;;
10910;SDS011;5508;49.150;11.030;2022-08-19T16:41:27;20.20;;;17.60;;
10910;SDS011;5508;49.150;11.030;2022-08-19T16:44:28;21.27;;;19.07;;
10910;SDS011;5508;49.150;11.030;2022-08-19T16:47:28;18.90;;;16.87;;
10910;SDS011;5508;49.150;11.030;2022-08-19T16:50:29;20.37;;;18.23;;
10910;SDS011;5508;49.150;11.030;2022-08-19T16:53:30;24.50;;;19.03;;
10910;SDS011;5508;49.150;11.030;2022-08-19T16:56:30;25.10;;;20.90;;
10910;SDS011;5508;49.150;11.030;2022-08-19T16:59:32;25.40;;;20.63;;
10910;SDS011;5508;49.150;11.030;2022-08-19T17:02:33;20.20;;;18.10;;
10910;SDS011;5508;49.150;11.030;2022-08-19T17:05:34;20.80;;;18.53;;
10910;SDS011;5508;49.150;11.030;2022-08-19T17:08:41;23.80;;;18.63;;
10910;SDS011;5508;49.150;11.030;2022-08-19T17:11:41;19.30;;;17.20;;
10910;SDS011;5508;49.150;11.030;2022-08-19T17:14:42;19.17;;;15.97;;
10910;SDS011;5508;49.150;11.030;2022-08-19T17:17:44;23.40;;;17.17;;
10910;SDS011;5508;49.150;11.030;2022-08-19T17:20:45;20.93;;;18.20;;
10910;SDS011;5508;49.150;11.030;2022-08-19T17:23:46;18.37;;;16.30;;
10910;SDS011;5508;49.150;11.030;2022-08-19T17:26:47;18.37;;;15.73;;
10910;SDS011;5508;49.150;11.030;2022-08-19T17:29:48;17.93;;;15.33;;
10910;SDS011;5508;49.150;11.030;2022-08-19T17:32:48;17.77;;;15.20;;
10910;SDS011;5508;49.150;11.030;2022-08-19T17:35:50;15.30;;;13.43;;
10910;SDS011;5508;49.150;11.030;2022-08-19T17:38:51;16.80;;;15.10;;
10910;SDS011;5508;49.150;11.030;2022-08-19T17:41:56;15.73;;;13.97;;
10910;SDS011;5508;49.150;11.030;2022-08-19T17:44:57;17.27;;;15.00;;
10910;SDS011;5508;49.150;11.030;2022-08-19T17:47:58;15.77;;;13.60;;
10910;SDS011;5508;49.150;11.030;2022-08-19T17:50:59;13.43;;;12.13;;
10910;SDS011;5508;49.150;11.030;2022-08-19T17:54:14;14.67;;;13.17;;
10910;SDS011;5508;49.150;11.030;2022-08-19T17:57:17;16.23;;;14.10;;